Home > Products > Valid Products > MTR

000
SAUS41 KBTV 311755
MTR1V4
METAR K1V4 311754Z AUTO 02/M13 A2970 RMK AO1 SLP067 T00221128 10022
21017 58012





000
SAUS41 KBTV 311655
MTR1V4
METAR K1V4 311654Z AUTO 01/M11 A2971 RMK AO1 SLP071 T00111106





000
SAUS41 KBTV 311555
MTR1V4
METAR K1V4 311554Z AUTO 00/M09 A2973 RMK AO1 SLP075 T00001089





000
SAUS41 KBTV 311456
MTR1V4
METAR K1V4 311454Z AUTO M01/M08 A2974 RMK AO1 SLP080 T10061078 50003





000
SAUS41 KBTV 311456
MTRBTV
METAR KBTV 311454Z 30009KT 10SM SCT039 02/M09 A2980 RMK AO2 SLP093
T00171094 50001





000
SAUS41 KBTV 311456
MTRBTV
METAR KBTV 311454Z 30009KT 10SM SCT039 02/M09 A2980 RMK AO2 SLP093
T00171094 50001





000
SAUS41 KBTV 311456
MTR1V4
METAR K1V4 311454Z AUTO M01/M08 A2974 RMK AO1 SLP080 T10061078 50003





000
SAUS41 KBTV 311356
MTRBTV
METAR KBTV 311354Z 32009KT 10SM SCT039 01/M09 A2981 RMK AO2 SLP096
T00061089





000
SAUS41 KBTV 311356
MTR1V4
METAR K1V4 311354Z AUTO M01/M08 A2974 RMK AO1 SLP081 T10111083





000
SAUS41 KBTV 311356
MTRBTV
METAR KBTV 311354Z 32009KT 10SM SCT039 01/M09 A2981 RMK AO2 SLP096
T00061089





000
SAUS41 KBTV 311356
MTR1V4
METAR K1V4 311354Z AUTO M01/M08 A2974 RMK AO1 SLP081 T10111083





000
SAUS41 KBTV 311256
MTRBTV
METAR KBTV 311254Z 32010KT 10SM BKN041 M01/M08 A2980 RMK AO2 SLP095
T10061083





000
SAUS41 KBTV 311256
MTRBTV
METAR KBTV 311254Z 32010KT 10SM BKN041 M01/M08 A2980 RMK AO2 SLP095
T10061083





000
SAUS41 KBTV 311255
MTR1V4
METAR K1V4 311254Z AUTO M01/M08 A2974 RMK AO1 SLP080 T10111078





000
SAUS41 KBTV 311255
MTR1V4
METAR K1V4 311254Z AUTO M01/M08 A2974 RMK AO1 SLP080 T10111078





000
SAUS41 KBTV 311156
MTRBTV
METAR KBTV 311154Z 34006KT 10SM BKN048 M01/M06 A2979 RMK AO2 SLP092
60000 T10061061 10017 21011 53014





000
SAUS41 KBTV 311156
MTRBTV
METAR KBTV 311154Z 34006KT 10SM BKN048 M01/M06 A2979 RMK AO2 SLP092
60000 T10061061 10017 21011 53014





000
SAUS41 KBTV 311155
MTR1V4
METAR K1V4 311154Z AUTO M02/M06 A2973 RMK AO1 SLP075 70006 T10171061
10006 21017 53015





000
SAUS41 KBTV 311155
MTR1V4
METAR K1V4 311154Z AUTO M02/M06 A2973 RMK AO1 SLP075 70006 T10171061
10006 21017 53015





000
SAUS41 KBTV 311055
MTR1V4
METAR K1V4 311054Z AUTO M02/M06 A2971 RMK AO1 SLP070 T10171061





000
SAUS41 KBTV 311055
MTRBTV
METAR KBTV 311054Z 35009KT 10SM SCT033 BKN047 M01/M07 A2978 RMK AO2
SNB14E26 SLP088 P0000 T10061067





000
SAUS41 KBTV 311055
MTR1V4
METAR K1V4 311054Z AUTO M02/M06 A2971 RMK AO1 SLP070 T10171061





000
SAUS41 KBTV 311055
MTRBTV
METAR KBTV 311054Z 35009KT 10SM SCT033 BKN047 M01/M07 A2978 RMK AO2
SNB14E26 SLP088 P0000 T10061067





000
SAUS41 KBTV 310955
MTR1V4
METAR K1V4 310954Z AUTO M01/M06 A2970 RMK AO1 SLP065 T10111056





000
SAUS41 KBTV 310955
MTRBTV
METAR KBTV 310954Z 32006KT 10SM OVC036 00/M06 A2976 RMK AO2 SLP081
T00001061





000
SAUS41 KBTV 310855
MTR1V4
METAR K1V4 310854Z AUTO M01/M06 A2968 RMK AO1 SLP060 T10111056 53019





000
SAUS41 KBTV 310855
MTRBTV
METAR KBTV 310854Z AUTO 29005KT 10SM OVC032 01/M06 A2975 RMK AO2
SLP078 60000 T00061061 53013 TSNO





000
SAUS41 KBTV 310755
MTRBTV
METAR KBTV 310754Z AUTO 32009KT 10SM OVC037 01/M06 A2974 RMK AO2
SLP073 T00061056 TSNO





000
SAUS41 KBTV 310755
MTR1V4
METAR K1V4 310754Z AUTO M01/M04 A2966 RMK AO1 SLP052 T10061044





000
SAUS41 KBTV 310655
MTRBTV
METAR KBTV 310654Z AUTO 31011KT 10SM BKN038 BKN045 01/M07 A2973 RMK
AO2 SNE03 SLP070 P0000 T00111067 TSNO





000
SAUS41 KBTV 310655
MTR1V4
METAR K1V4 310654Z AUTO 00/M04 A2964 RMK AO1 SLP045 T00001039





000
SAUS41 KBTV 310655
MTRBTV
METAR KBTV 310654Z AUTO 31011KT 10SM BKN038 BKN045 01/M07 A2973 RMK
AO2 SNE03 SLP070 P0000 T00111067 TSNO





000
SAUS41 KBTV 310630
MTRBTV
SPECI KBTV 310629Z AUTO 30014KT 10SM FEW027 BKN034 OVC043 01/M04
A2972 RMK AO2 SNE03 P0000 T00111039 TSNO





000
SAUS41 KBTV 310630
MTRBTV
SPECI KBTV 310629Z AUTO 30014KT 10SM FEW027 BKN034 OVC043 01/M04
A2972 RMK AO2 SNE03 P0000 T00111039 TSNO





000
SAUS41 KBTV 310555
MTRBTV
METAR KBTV 310554Z AUTO 29008KT 10SM -SN BKN028 OVC037 02/M03 A2971
RMK AO2 SNB54 SLP065 P0000 60000 T00171033 10044 20011 53008 TSNO





000
SAUS41 KBTV 310555
MTR1V4
METAR K1V4 310554Z AUTO 00/M01 A2962 RMK AO1 SLP041 P0003 60005
T00001006 10022 20000 55001





000
SAUS41 KBTV 310555
MTR1V4
METAR K1V4 310554Z AUTO 00/M01 A2962 RMK AO1 SLP041 P0003 60005
T00001006 10022 20000 55001





000
SAUS41 KBTV 310555
MTRBTV
METAR KBTV 310554Z AUTO 29008KT 10SM -SN BKN028 OVC037 02/M03 A2971
RMK AO2 SNB54 SLP065 P0000 60000 T00171033 10044 20011 53008 TSNO





000
SAUS41 KBTV 310456
MTR1V4
METAR K1V4 310454Z AUTO 00/M01 A2962 RMK AO1 SLP040 T00001011
400281011





000
SAUS41 KBTV 310455
MTRBTV
METAR KBTV 310454Z AUTO 32006KT 10SM FEW023 BKN034 OVC042 02/M02
A2970 RMK AO2 SNB06E26 SLP061 P0000 T00171017 400560011 TSNO





000
SAUS41 KBTV 310455
MTRBTV
METAR KBTV 310454Z AUTO 32006KT 10SM FEW023 BKN034 OVC042 02/M02
A2970 RMK AO2 SNB06E26 SLP061 P0000 T00171017 400560011 TSNO





000
SAUS41 KBTV 310355
MTR1V4
METAR K1V4 310354Z AUTO 01/M01 A2962 RMK AO1 SLP039 T00061006





000
SAUS41 KBTV 310355
MTRBTV
METAR KBTV 310354Z 24006KT 10SM BKN026 OVC037 02/M01 A2969 RMK AO2
SNE11 SLP056 P0000 T00171011





000
SAUS41 KBTV 310313
MTRBTV
SPECI KBTV 310311Z 24007KT 9SM OVC040 02/M01 A2968 RMK AO2 SNE11
P0000 T00171011





000
SAUS41 KBTV 310305
MTRBTV
SPECI KBTV 310303Z 24008KT 7SM -SN OVC026 02/M01 A2969 RMK AO2 P0000
T00171011





000
SAUS41 KBTV 310305
MTRBTV
SPECI KBTV 310303Z 24008KT 7SM -SN OVC026 02/M01 A2969 RMK AO2 P0000
T00171011





000
SAUS41 KBTV 310256
MTRBTV
METAR KBTV 310254Z 23008KT 8SM -SN OVC032 02/M01 A2969 RMK AO2 SNB41
SLP057 P0000 60000 T00171011 51012





000
SAUS41 KBTV 310256
MTRBTV
METAR KBTV 310254Z 23008KT 8SM -SN OVC032 02/M01 A2969 RMK AO2 SNB41
SLP057 P0000 60000 T00171011 51012





000
SAUS41 KBTV 310255
MTR1V4
METAR K1V4 310254Z AUTO 01/00 A2963 RMK AO1 SLP042 P0001 60002
T00060000 50004





000
SAUS41 KBTV 310255
MTR1V4
METAR K1V4 310254Z AUTO 01/00 A2963 RMK AO1 SLP042 P0001 60002
T00060000 50004





000
SAUS41 KBTV 310156
MTRBTV
METAR KBTV 310154Z 23006KT 10SM SCT110 02/M01 A2968 RMK AO2 RAE0058
SLP054 P0000 T00171011





000
SAUS41 KBTV 310156
MTRBTV
METAR KBTV 310154Z 23006KT 10SM SCT110 02/M01 A2968 RMK AO2 RAE0058
SLP054 P0000 T00171011





000
SAUS41 KBTV 310155
MTR1V4
METAR K1V4 310154Z AUTO 01/00 A2963 RMK AO1 SLP043 P0001 T00110000





000
SAUS41 KBTV 310155
MTR1V4
METAR K1V4 310154Z AUTO 01/00 A2963 RMK AO1 SLP043 P0001 T00110000





000
SAUS41 KBTV 310107
MTRBTV
SPECI KBTV 310105Z 23010G19KT 10SM SCT016 OVC100 02/M01 A2968 RMK
AO2 RAE0058 P0000 T00221011





000
SAUS41 KBTV 310107
MTRBTV
SPECI KBTV 310105Z 23010G19KT 10SM SCT016 OVC100 02/M01 A2968 RMK
AO2 RAE0058 P0000 T00221011





000
SAUS41 KBTV 310056
MTRBTV
METAR KBTV 310054Z 24008KT 10SM -RA BKN016 BKN027 OVC085 02/M01
A2968 RMK AO2 SLP053 RAB29 P0000 T00221011





000
SAUS41 KBTV 310056
MTRBTV
METAR KBTV 310054Z 24008KT 10SM -RA BKN016 BKN027 OVC085 02/M01
A2968 RMK AO2 SLP053 RAB29 P0000 T00221011





000
SAUS41 KBTV 310055
MTR1V4
METAR K1V4 310054Z AUTO 01/00 A2963 RMK AO1 SLP041 T00110000





000
SAUS41 KBTV 310055
MTR1V4
METAR K1V4 310054Z AUTO 01/00 A2963 RMK AO1 SLP041 T00110000





000
SAUS41 KBTV 310052
MTRBTV
SPECI KBTV 310043Z COR 25009KT 10SM -RA SCT014 BKN021 OVC090 03/M01
A2968 RMK AO2 RAB293 P0000 T00281011





000
SAUS41 KBTV 310052
MTRBTV
SPECI KBTV 310043Z COR 25009KT 10SM -RA SCT014 BKN021 OVC090 03/M01
A2968 RMK AO2 RAB293 P0000 T00281011





000
SAUS41 KBTV 310045
MTRBTV
SPECI KBTV 310043Z 25009KT 10SM UP SCT014 BKN021 OVC090 03/M01 A2968
RMK AO2 RAB29E43UPB43 P0000 T00281011





000
SAUS41 KBTV 310045
MTRBTV
SPECI KBTV 310043Z 25009KT 10SM UP SCT014 BKN021 OVC090 03/M01 A2968
RMK AO2 RAB29E43UPB43 P0000 T00281011





000
SAUS41 KBTV 302355
MTR1V4
METAR K1V4 302354Z AUTO 02/M01 A2962 RMK AO1 SLP037 60001 T00221011
10028 20017 53010





000
SAUS41 KBTV 302355
MTRBTV
METAR KBTV 302354Z 27011KT 10SM BKN039 OVC050 04/M03 A2965 RMK AO2
SLP045 60000 T00441028 10056 20033 53014





000
SAUS41 KBTV 302355
MTR1V4
METAR K1V4 302354Z AUTO 02/M01 A2962 RMK AO1 SLP037 60001 T00221011
10028 20017 53010





000
SAUS41 KBTV 302355
MTRBTV
METAR KBTV 302354Z 27011KT 10SM BKN039 OVC050 04/M03 A2965 RMK AO2
SLP045 60000 T00441028 10056 20033 53014





000
SAUS41 KBTV 302256
MTRBTV
METAR KBTV 302254Z 24005KT 10SM BKN045 BKN055 BKN070 05/M04 A2963
RMK AO2 SLP038 T00501039





000
SAUS41 KBTV 302256
MTRBTV
METAR KBTV 302254Z 24005KT 10SM BKN045 BKN055 BKN070 05/M04 A2963
RMK AO2 SLP038 T00501039





000
SAUS41 KBTV 302255
MTR1V4
METAR K1V4 302254Z AUTO 03/M02 A2960 RMK AO1 SLP032 T00281017





000
SAUS41 KBTV 302255
MTR1V4
METAR K1V4 302254Z AUTO 03/M02 A2960 RMK AO1 SLP032 T00281017





000
SAUS41 KBTV 302156
MTRBTV
METAR KBTV 302154Z 26014G20KT 10SM BKN048 BKN060 06/M04 A2962 RMK
AO2 SLP033 T00561044





000
SAUS41 KBTV 302155
MTR1V4
METAR K1V4 302154Z AUTO 02/M01 A2960 RMK AO1 SLP031 P0001 T00221011





000
SAUS41 KBTV 302056
MTRBTV
METAR KBTV 302054Z 19007KT 10SM BKN045 04/M02 A2961 RMK AO2 SLP029
60000 T00441022 53006





000
SAUS41 KBTV 302055
MTR1V4
METAR K1V4 302054Z AUTO 02/M02 A2959 RMK AO1 SLP028 T00221017 55001





000
SAUS41 KBTV 301956
MTRBTV
METAR KBTV 301954Z 21008G17KT 10SM OVC045 04/M02 A2960 RMK AO2
RAB13E27SNE27 SLP028 P0000 T00391017





000
SAUS41 KBTV 301956
MTRBTV
METAR KBTV 301954Z 21008G17KT 10SM OVC045 04/M02 A2960 RMK AO2
RAB13E27SNE27 SLP028 P0000 T00391017





000
SAUS41 KBTV 301955
MTR1V4
METAR K1V4 301954Z AUTO 02/M02 A2958 RMK AO1 SLP025 T00221022





000
SAUS41 KBTV 301955
MTR1V4
METAR K1V4 301954Z AUTO 02/M02 A2958 RMK AO1 SLP025 T00221022





000
SAUS41 KBTV 301855
MTR1V4
METAR K1V4 301854Z AUTO 02/M03 A2958 RMK AO1 SLP025 T00171028





000
SAUS41 KBTV 301855
MTRBTV
METAR KBTV 301854Z 20009KT 9SM -SN OVC043 04/M02 A2959 RMK AO2
RAE1755SNB44 SLP024 INTMT SHSN P0000 T00391017





000
SAUS41 KBTV 301855
MTRBTV
METAR KBTV 301854Z 20009KT 9SM -SN OVC043 04/M02 A2959 RMK AO2
RAE1755SNB44 SLP024 INTMT SHSN P0000 T00391017





000
SAUS41 KBTV 301855
MTR1V4
METAR K1V4 301854Z AUTO 02/M03 A2958 RMK AO1 SLP025 T00171028





000
SAUS41 KBTV 301755
MTRBTV
METAR KBTV 301754Z 19015G19KT 10SM -RA FEW033 BKN044 OVC060 03/M02
A2959 RMK AO2 RAB41 SLP024 INTMT SHRA P0000 60000 T00331022 10033
20011 56009





000
SAUS41 KBTV 301755
MTR1V4
METAR K1V4 301754Z AUTO 02/M03 A2959 RMK AO1 SLP028 T00171033 10017
20006 58019





000
SAUS41 KBTV 301755
MTR1V4
METAR K1V4 301754Z AUTO 02/M03 A2959 RMK AO1 SLP028 T00171033 10017
20006 58019





000
SAUS41 KBTV 301755
MTRBTV
METAR KBTV 301754Z 19015G19KT 10SM -RA FEW033 BKN044 OVC060 03/M02
A2959 RMK AO2 RAB41 SLP024 INTMT SHRA P0000 60000 T00331022 10033
20011 56009





000
SAUS41 KBTV 301656
MTRBTV
METAR KBTV 301654Z 19015G21KT 10SM OVC042 03/M02 A2959 RMK AO2
SLP024 MTNS OBSCD E-S T00331022





000
SAUS41 KBTV 301656
MTRBTV
METAR KBTV 301654Z 19015G21KT 10SM OVC042 03/M02 A2959 RMK AO2
SLP024 MTNS OBSCD E-S T00331022





000
SAUS41 KBTV 301655
MTR1V4
METAR K1V4 301654Z AUTO 01/M04 A2961 RMK AO1 SLP036 T00111039





000
SAUS41 KBTV 301655
MTR1V4
METAR K1V4 301654Z AUTO 01/M04 A2961 RMK AO1 SLP036 T00111039





000
SAUS41 KBTV 301555
MTRBTV
METAR KBTV 301554Z 18015G26KT 10SM FEW023 OVC046 03/M03 A2961 RMK
AO2 PK WND 19030/1458 SLP031 MTNS OBSCD E-S T00281028





000
SAUS41 KBTV 301555
MTR1V4
METAR K1V4 301554Z AUTO 01/M06 A2963 RMK AO1 SLP043 T00111056





000
SAUS41 KBTV 301455
MTR1V4
METAR K1V4 301454Z AUTO 01/M06 A2965 RMK AO1 SLP049 T00061061 56020





000
SAUS41 KBTV 301455
MTRBTV
METAR KBTV 301454Z 18019G29KT 10SM FEW045 SCT080 BKN090 03/M03 A2962
RMK AO2 PK WND 18030/1421 SLP033 60000 T00281033 56019





000
SAUS41 KBTV 301356
MTRBTV
METAR KBTV 301354Z 18019G29KT 10SM BKN075 02/M04 A2964 RMK AO2 PK
WND 18032/1324 SNB37E46 SLP040 P0000 T00171039





000
SAUS41 KBTV 301256
MTRBTV
METAR KBTV 301254Z 18020G30KT 10SM BKN065 BKN080 01/M05 A2965 RMK
AO2 PK WND 18032/1208 SLP043 SHSN DSNT OBSCG MTNS E-S T00111050





000
SAUS41 KBTV 301256
MTRBTV
METAR KBTV 301254Z 18020G30KT 10SM BKN065 BKN080 01/M05 A2965 RMK
AO2 PK WND 18032/1208 SLP043 SHSN DSNT OBSCG MTNS E-S T00111050





000
SAUS41 KBTV 301255
MTR1V4
METAR K1V4 301254Z AUTO 01/M11 A2968 RMK AO1 SLP060 T00111106





000
SAUS41 KBTV 301255
MTR1V4
METAR K1V4 301254Z AUTO 01/M11 A2968 RMK AO1 SLP060 T00111106





000
SAUS41 KBTV 301156
MTRBTV
METAR KBTV 301154Z 18018G32KT 9SM BKN060 OVC075 01/M06 A2968 RMK AO2
PK WND 18032/1148 SNB35E49 SLP052 P0000 60000 T00111061 10028 20011
57030





000
SAUS41 KBTV 301156
MTRBTV
METAR KBTV 301154Z 18018G32KT 9SM BKN060 OVC075 01/M06 A2968 RMK AO2
PK WND 18032/1148 SNB35E49 SLP052 P0000 60000 T00111061 10028 20011
57030





000
SAUS41 KBTV 301155
MTR1V4
METAR K1V4 301154Z AUTO 01/M12 A2971 RMK AO1 SLP069 T00061122 10006
21011 58029





000
SAUS41 KBTV 301155
MTR1V4
METAR K1V4 301154Z AUTO 01/M12 A2971 RMK AO1 SLP069 T00061122 10006
21011 58029





000
SAUS41 KBTV 301056
MTRBTV
METAR KBTV 301054Z 18018G29KT 10SM BKN080 OVC120 02/M09 A2971 RMK
AO2 PK WND 19032/1044 SLP064 T00171089





000
SAUS41 KBTV 301056
MTRBTV
METAR KBTV 301054Z 18018G29KT 10SM BKN080 OVC120 02/M09 A2971 RMK
AO2 PK WND 19032/1044 SLP064 T00171089





000
SAUS41 KBTV 301055
MTR1V4
METAR K1V4 301054Z AUTO 00/M12 A2975 RMK AO1 SLP082 T00001117





000
SAUS41 KBTV 300956
MTRBTV
METAR KBTV 300954Z 19014G24KT 10SM OVC075 02/M13 A2973 RMK AO2
SLP071 T00221128





000
SAUS41 KBTV 300856
MTRBTV
METAR KBTV 300854Z AUTO 18013G24KT 10SM BKN080 OVC095 03/M14 A2976
RMK AO2 SLP081 T00281139 56034 TSNO





000
SAUS41 KBTV 300855
MTR1V4
METAR K1V4 300854Z AUTO M01/M12 A2979 RMK AO1 SLP097 T10061122 58035





000
SAUS41 KBTV 300755
MTRBTV
METAR KBTV 300754Z AUTO 18016G24KT 10SM BKN100 OVC110 03/M14 A2980
RMK AO2 SLP094 T00281139 TSNO





000
SAUS41 KBTV 300755
MTR1V4
METAR K1V4 300754Z AUTO M01/M12 A2983 RMK AO1 SLP110 T10111117





000
SAUS41 KBTV 300755
MTRBTV
METAR KBTV 300754Z AUTO 18016G24KT 10SM BKN100 OVC110 03/M14 A2980
RMK AO2 SLP094 T00281139 TSNO





000
SAUS41 KBTV 300755
MTR1V4
METAR K1V4 300754Z AUTO M01/M12 A2983 RMK AO1 SLP110 T10111117





000
SAUS41 KBTV 300655
MTRBTV
METAR KBTV 300654Z AUTO 18017G25KT 10SM BKN100 OVC120 03/M14 A2982
RMK AO2 SLP103 T00281144 TSNO





000
SAUS41 KBTV 300655
MTR1V4
METAR K1V4 300654Z AUTO M01/M13 A2986 RMK AO1 SLP123 T10061128





000
SAUS41 KBTV 300655
MTR1V4
METAR K1V4 300654Z AUTO M01/M13 A2986 RMK AO1 SLP123 T10061128





000
SAUS41 KBTV 300655
MTRBTV
METAR KBTV 300654Z AUTO 18017G25KT 10SM BKN100 OVC120 03/M14 A2982
RMK AO2 SLP103 T00281144 TSNO





000
SAUS41 KBTV 300555
MTRBTV
METAR KBTV 300554Z AUTO 18013G22KT 10SM CLR 02/M13 A2986 RMK AO2
SLP116 T00221133 10028 20017 58033 TSNO





000
SAUS41 KBTV 300555
MTRBTV
METAR KBTV 300554Z AUTO 18013G22KT 10SM CLR 02/M13 A2986 RMK AO2
SLP116 T00221133 10028 20017 58033 TSNO





000
SAUS41 KBTV 300555
MTR1V4
METAR K1V4 300554Z AUTO M01/M12 A2990 RMK AO1 SLP134 T10061122 10000
21028 58025





000
SAUS41 KBTV 300456
MTR1V4
METAR K1V4 300454Z AUTO M01/M12 A2993 RMK AO1 SLP146 T10061122
400441128





000
SAUS41 KBTV 300456
MTRBTV
METAR KBTV 300454Z AUTO 17014G21KT 10SM CLR 02/M13 A2990 RMK AO2
SLP129 T00221133 400501106 TSNO





000
SAUS41 KBTV 300456
MTR1V4
METAR K1V4 300454Z AUTO M01/M12 A2993 RMK AO1 SLP146 T10061122
400441128





000
SAUS41 KBTV 300456
MTRBTV
METAR KBTV 300454Z AUTO 17014G21KT 10SM CLR 02/M13 A2990 RMK AO2
SLP129 T00221133 400501106 TSNO





000
SAUS41 KBTV 300356
MTRBTV
METAR KBTV 300354Z 19011G20KT 10SM CLR 02/M12 A2995 RMK AO2 SLP145
T00171122





000
SAUS41 KBTV 300255
MTR1V4
METAR K1V4 300254Z AUTO M02/M09 A2997 RMK AO1 SLP162 T10221094 56015





000
SAUS41 KBTV 300255
MTRBTV
METAR KBTV 300254Z 18012KT 10SM CLR 02/M12 A2996 RMK AO2 SLP150
T00171122 56016





000
SAUS41 KBTV 300155
MTRBTV
METAR KBTV 300154Z 18012G22KT 10SM CLR 02/M12 A2997 RMK AO2 SLP154
T00221122





000
SAUS41 KBTV 300155
MTR1V4
METAR K1V4 300154Z AUTO M02/M11 A2997 RMK AO1 SLP163 T10171111





000
SAUS41 KBTV 300056
MTRBTV
METAR KBTV 300054Z 17010KT 10SM CLR 03/M13 A2999 RMK AO2 SLP159
T00281128





000
SAUS41 KBTV 300056
MTRBTV
METAR KBTV 300054Z 17010KT 10SM CLR 03/M13 A2999 RMK AO2 SLP159
T00281128





000
SAUS41 KBTV 300055
MTR1V4
METAR K1V4 300054Z AUTO M02/M11 A3000 RMK AO1 SLP174 T10171106





000
SAUS41 KBTV 300055
MTR1V4
METAR K1V4 300054Z AUTO M02/M11 A3000 RMK AO1 SLP174 T10171106





000
SAUS41 KBTV 292356
MTRBTV
METAR KBTV 292354Z 18007KT 10SM CLR 03/M13 A3001 RMK AO2 SLP167
T00281128 10050 20022 58017





000
SAUS41 KBTV 292356
MTRBTV
METAR KBTV 292354Z 18007KT 10SM CLR 03/M13 A3001 RMK AO2 SLP167
T00281128 10050 20022 58017





000
SAUS41 KBTV 292355
MTR1V4
METAR K1V4 292354Z AUTO 00/M11 A3002 RMK AO1 SLP181 T00001106 10044
20000 58005





000
SAUS41 KBTV 292355
MTR1V4
METAR K1V4 292354Z AUTO 00/M11 A3002 RMK AO1 SLP181 T00001106 10044
20000 58005





000
SAUS41 KBTV 292256
MTRBTV
METAR KBTV 292254Z 18007KT 10SM CLR 03/M13 A3003 RMK AO2 SLP175
T00331128





000
SAUS41 KBTV 292256
MTRBTV
METAR KBTV 292254Z 18007KT 10SM CLR 03/M13 A3003 RMK AO2 SLP175
T00331128





000
SAUS41 KBTV 292255
MTR1V4
METAR K1V4 292254Z AUTO 03/M15 A3002 RMK AO1 SLP182 T00281150





000
SAUS41 KBTV 292255
MTR1V4
METAR K1V4 292254Z AUTO 03/M15 A3002 RMK AO1 SLP182 T00281150





000
SAUS41 KBTV 292156
MTRBTV
METAR KBTV 292154Z 19009KT 10SM FEW120 04/M13 A3005 RMK AO2 SLP179
T00441133





000
SAUS41 KBTV 292155
MTR1V4
METAR K1V4 292154Z AUTO 03/M16 A3003 RMK AO1 SLP185 T00331156





000
SAUS41 KBTV 292055
MTRBTV
METAR KBTV 292054Z 19011KT 10SM CLR 05/M13 A3006 RMK AO2 SLP185
T00501133 56030





000
SAUS41 KBTV 292055
MTR1V4
METAR K1V4 292054Z AUTO 04/M16 A3003 RMK AO1 SLP184 T00391161 56026





000
SAUS41 KBTV 291955
MTR1V4
METAR K1V4 291954Z AUTO 03/M16 A3005 RMK AO1 SLP192 T00331161





000
SAUS41 KBTV 291955
MTRBTV
METAR KBTV 291954Z 17009KT 10SM CLR 05/M14 A3008 RMK AO2 SLP191
T00501144





000
SAUS41 KBTV 291955
MTR1V4
METAR K1V4 291954Z AUTO 03/M16 A3005 RMK AO1 SLP192 T00331161





000
SAUS41 KBTV 291955
MTRBTV
METAR KBTV 291954Z 17009KT 10SM CLR 05/M14 A3008 RMK AO2 SLP191
T00501144





000
SAUS41 KBTV 291855
MTR1V4
METAR K1V4 291854Z AUTO 02/M17 A3007 RMK AO1 SLP199 T00221172





000
SAUS41 KBTV 291855
MTRBTV
METAR KBTV 291854Z 16007KT 10SM FEW150 FEW250 04/M15 A3011 RMK AO2
SLP202 T00391150





000
SAUS41 KBTV 291855
MTRBTV
METAR KBTV 291854Z 16007KT 10SM FEW150 FEW250 04/M15 A3011 RMK AO2
SLP202 T00391150





000
SAUS41 KBTV 291855
MTR1V4
METAR K1V4 291854Z AUTO 02/M17 A3007 RMK AO1 SLP199 T00221172





000
SAUS41 KBTV 291755
MTR1V4
METAR K1V4 291754Z AUTO 02/M16 A3011 RMK AO1 SLP210 T00221156 10022
21117 58019





000
SAUS41 KBTV 291755
MTRBTV
METAR KBTV 291754Z VRB06KT 10SM FEW150 FEW250 03/M17 A3015 RMK AO2
PRESFR SLP215 T00331167 10039 21083 58024





000
SAUS41 KBTV 291755
MTRBTV
METAR KBTV 291754Z VRB06KT 10SM FEW150 FEW250 03/M17 A3015 RMK AO2
PRESFR SLP215 T00331167 10039 21083 58024





000
SAUS41 KBTV 291755
MTR1V4
METAR K1V4 291754Z AUTO 02/M16 A3011 RMK AO1 SLP210 T00221156 10022
21117 58019





000
SAUS41 KBTV 291656
MTR1V4
METAR K1V4 291654Z AUTO 01/M17 A3013 RMK AO1 SLP218 T00111167





000
SAUS41 KBTV 291656
MTR1V4
METAR K1V4 291654Z AUTO 01/M17 A3013 RMK AO1 SLP218 T00111167





000
SAUS41 KBTV 291655
MTRBTV
METAR KBTV 291654Z 24007KT 10SM FEW150 SCT250 03/M17 A3019 RMK AO2
SLP229 T00281167





000
SAUS41 KBTV 291655
MTRBTV
METAR KBTV 291654Z 24007KT 10SM FEW150 SCT250 03/M17 A3019 RMK AO2
SLP229 T00281167





000
SAUS41 KBTV 291556
MTRBTV
METAR KBTV 291554Z 29005KT 10SM FEW150 01/M17 A3021 RMK AO2 SLP234
T00111172





000
SAUS41 KBTV 291556
MTR1V4
METAR K1V4 291554Z AUTO M01/M17 A3015 RMK AO1 SLP225 T10061167





000
SAUS41 KBTV 291456
MTRBTV
METAR KBTV 291454Z 26005KT 10SM CLR M01/M17 A3022 RMK AO2 SLP241
T10061167 50005





000
SAUS41 KBTV 291456
MTRBTV
METAR KBTV 291454Z 26005KT 10SM CLR M01/M17 A3022 RMK AO2 SLP241
T10061167 50005





000
SAUS41 KBTV 291455
MTR1V4
METAR K1V4 291454Z AUTO M03/M16 A3017 RMK AO1 SLP231 T10281161 50003





000
SAUS41 KBTV 291455
MTR1V4
METAR K1V4 291454Z AUTO M03/M16 A3017 RMK AO1 SLP231 T10281161 50003





000
SAUS41 KBTV 291356
MTRBTV
METAR KBTV 291354Z 28004KT 10SM CLR M02/M16 A3024 RMK AO2 SLP244
T10171156





000
SAUS41 KBTV 291356
MTRBTV
METAR KBTV 291354Z 28004KT 10SM CLR M02/M16 A3024 RMK AO2 SLP244
T10171156





000
SAUS41 KBTV 291355
MTR1V4
METAR K1V4 291354Z AUTO M06/M16 A3018 RMK AO1 SLP238 T10561156





000
SAUS41 KBTV 291355
MTR1V4
METAR K1V4 291354Z AUTO M06/M16 A3018 RMK AO1 SLP238 T10561156





000
SAUS41 KBTV 291255
MTRBTV
METAR KBTV 291254Z 16003KT 10SM CLR M05/M12 A3023 RMK AO2 SLP241
T10501122





000
SAUS41 KBTV 291255
MTR1V4
METAR K1V4 291254Z AUTO M09/M14 A3017 RMK AO1 SLP235 T10891139





000
SAUS41 KBTV 291255
MTRBTV
METAR KBTV 291254Z 16003KT 10SM CLR M05/M12 A3023 RMK AO2 SLP241
T10501122





000
SAUS41 KBTV 291255
MTR1V4
METAR K1V4 291254Z AUTO M09/M14 A3017 RMK AO1 SLP235 T10891139





000
SAUS41 KBTV 291155
MTRBTV
METAR KBTV 291154Z 00000KT 10SM CLR M08/M12 A3021 RMK AO2 SLP236
T10831122 11083 21106 52019





000
SAUS41 KBTV 291155
MTR1V4
METAR K1V4 291154Z AUTO M12/M14 A3016 RMK AO1 SLP231 T11171144 11094
21128 51020





000
SAUS41 KBTV 291155
MTRBTV
METAR KBTV 291154Z 00000KT 10SM CLR M08/M12 A3021 RMK AO2 SLP236
T10831122 11083 21106 52019





000
SAUS41 KBTV 291155
MTR1V4
METAR K1V4 291154Z AUTO M12/M14 A3016 RMK AO1 SLP231 T11171144 11094
21128 51020





000
SAUS41 KBTV 291055
MTR1V4
METAR K1V4 291054Z AUTO M13/M15 A3014 RMK AO1 SLP225 T11281150





000
SAUS41 KBTV 291055
MTRBTV
METAR KBTV 291054Z 00000KT 10SM CLR M10/M14 A3019 RMK AO2 SLP230
T11001139





000
SAUS41 KBTV 291055
MTR1V4
METAR K1V4 291054Z AUTO M13/M15 A3014 RMK AO1 SLP225 T11281150





000
SAUS41 KBTV 291055
MTRBTV
METAR KBTV 291054Z 00000KT 10SM CLR M10/M14 A3019 RMK AO2 SLP230
T11001139





000
SAUS41 KBTV 290956
MTRBTV
METAR KBTV 290954Z 00000KT 10SM CLR M10/M13 A3017 RMK AO2 SLP223
T11001133





000
SAUS41 KBTV 290955
MTR1V4
METAR K1V4 290954Z AUTO M12/M15 A3012 RMK AO1 SLP216 T11221150





000
SAUS41 KBTV 290856
MTRBTV
METAR KBTV 290854Z 14003KT 10SM CLR M10/M13 A3015 RMK AO2 SLP216
T11001133 53010





000
SAUS41 KBTV 290856
MTRBTV
METAR KBTV 290854Z 14003KT 10SM CLR M10/M13 A3015 RMK AO2 SLP216
T11001133 53010





000
SAUS41 KBTV 290855
MTR1V4
METAR K1V4 290854Z AUTO M12/M14 A3010 RMK AO1 SLP208 T11171144 53010





000
SAUS41 KBTV 290756
MTRBTV
METAR KBTV 290754Z 00000KT 10SM CLR M09/M13 A3014 RMK AO2 SLP211
T10941128





000
SAUS41 KBTV 290756
MTRBTV
METAR KBTV 290754Z 00000KT 10SM CLR M09/M13 A3014 RMK AO2 SLP211
T10941128





000
SAUS41 KBTV 290755
MTR1V4
METAR K1V4 290754Z AUTO M11/M14 A3008 RMK AO1 SLP201 T11111139





000
SAUS41 KBTV 290755
MTR1V4
METAR K1V4 290754Z AUTO M11/M14 A3008 RMK AO1 SLP201 T11111139





000
SAUS41 KBTV 290655
MTR1V4
METAR K1V4 290654Z AUTO M11/M14 A3007 RMK AO1 SLP199 T11061139





000
SAUS41 KBTV 290655
MTRBTV
METAR KBTV 290654Z 00000KT 10SM CLR M09/M13 A3013 RMK AO2 SLP208
T10891133





000
SAUS41 KBTV 290655
MTR1V4
METAR K1V4 290654Z AUTO M11/M14 A3007 RMK AO1 SLP199 T11061139





000
SAUS41 KBTV 290655
MTRBTV
METAR KBTV 290654Z 00000KT 10SM CLR M09/M13 A3013 RMK AO2 SLP208
T10891133





000
SAUS41 KBTV 290556
MTRBTV
METAR KBTV 290554Z 00000KT 10SM CLR M09/M13 A3012 RMK AO2 SLP206
T10891128 11044 21089 51003





000
SAUS41 KBTV 290556
MTRBTV
METAR KBTV 290554Z 00000KT 10SM CLR M09/M13 A3012 RMK AO2 SLP206
T10891128 11044 21089 51003





000
SAUS41 KBTV 290555
MTR1V4
METAR K1V4 290554Z AUTO M09/M13 A3007 RMK AO1 SLP197 T10941133 11044
21094 51006





000
SAUS41 KBTV 290555
MTR1V4
METAR K1V4 290554Z AUTO M09/M13 A3007 RMK AO1 SLP197 T10941133 11044
21094 51006





000
SAUS41 KBTV 290455
MTRBTV
METAR KBTV 290454Z 00000KT 10SM CLR M08/M13 A3012 RMK AO2 SLP205
T10831128 410171089





000
SAUS41 KBTV 290455
MTR1V4
METAR K1V4 290454Z AUTO M08/M14 A3006 RMK AO1 SLP194 T10831139
400111083





000
SAUS41 KBTV 290455
MTRBTV
METAR KBTV 290454Z 00000KT 10SM CLR M08/M13 A3012 RMK AO2 SLP205
T10831128 410171089





000
SAUS41 KBTV 290455
MTR1V4
METAR K1V4 290454Z AUTO M08/M14 A3006 RMK AO1 SLP194 T10831139
400111083





000
SAUS41 KBTV 290355
MTR1V4
METAR K1V4 290354Z AUTO M07/M14 A3006 RMK AO1 SLP193 T10721144





000
SAUS41 KBTV 290355
MTRBTV
METAR KBTV 290354Z 00000KT 10SM CLR M08/M13 A3012 RMK AO2 SLP205
T10781128





000
SAUS41 KBTV 290256
MTRBTV
METAR KBTV 290254Z 23003KT 10SM CLR M07/M13 A3011 RMK AO2 SLP203
T10721128 51020





000
SAUS41 KBTV 290255
MTR1V4
METAR K1V4 290254Z AUTO M06/M16 A3005 RMK AO1 SLP191 T10611156 51025





000
SAUS41 KBTV 290155
MTRBTV
METAR KBTV 290154Z 00000KT 10SM CLR M06/M14 A3011 RMK AO2 SLP202
T10561139





000
SAUS41 KBTV 290155
MTR1V4
METAR K1V4 290154Z AUTO M06/M17 A3003 RMK AO1 SLP183 T10561167





000
SAUS41 KBTV 290155
MTR1V4
METAR K1V4 290154Z AUTO M06/M17 A3003 RMK AO1 SLP183 T10561167





000
SAUS41 KBTV 290155
MTRBTV
METAR KBTV 290154Z 00000KT 10SM CLR M06/M14 A3011 RMK AO2 SLP202
T10561139





000
SAUS41 KBTV 290056
MTRBTV
METAR KBTV 290054Z 32003KT 10SM CLR M04/M15 A3008 RMK AO2 SLP193
T10441150





000
SAUS41 KBTV 290056
MTRBTV
METAR KBTV 290054Z 32003KT 10SM CLR M04/M15 A3008 RMK AO2 SLP193
T10441150





000
SAUS41 KBTV 290055
MTR1V4
METAR K1V4 290054Z AUTO M05/M17 A3001 RMK AO1 SLP176 T10501167





000
SAUS41 KBTV 290055
MTR1V4
METAR K1V4 290054Z AUTO M05/M17 A3001 RMK AO1 SLP176 T10501167





000
SAUS41 KBTV 282356
MTRBTV
METAR KBTV 282354Z 34005KT 10SM FEW100 M04/M16 A3006 RMK AO2 SLP183
T10441161 11017 21044 53026 $





000
SAUS41 KBTV 282356
MTRBTV
METAR KBTV 282354Z 34005KT 10SM FEW100 M04/M16 A3006 RMK AO2 SLP183
T10441161 11017 21044 53026 $





000
SAUS41 KBTV 282355
MTR1V4
METAR K1V4 282354Z AUTO M04/M16 A2997 RMK AO1 SLP164 T10441161 10011
21044 53041





000
SAUS41 KBTV 282355
MTR1V4
METAR K1V4 282354Z AUTO M04/M16 A2997 RMK AO1 SLP164 T10441161 10011
21044 53041





000
SAUS41 KBTV 282255
MTR1V4
METAR K1V4 282254Z AUTO M03/M13 A2992 RMK AO1 SLP145 T10331133





000
SAUS41 KBTV 282255
MTRBTV
METAR KBTV 282254Z 34012KT 10SM FEW080 FEW170 M03/M16 A3002 RMK AO2
SLP173 T10331161 $





000
SAUS41 KBTV 282255
MTR1V4
METAR K1V4 282254Z AUTO M03/M13 A2992 RMK AO1 SLP145 T10331133





000
SAUS41 KBTV 282255
MTRBTV
METAR KBTV 282254Z 34012KT 10SM FEW080 FEW170 M03/M16 A3002 RMK AO2
SLP173 T10331161 $





000
SAUS41 KBTV 282156
MTRBTV
METAR KBTV 282154Z 35009G19KT 10SM FEW080 FEW170 M03/M16 A3000 RMK
AO2 SLP163 T10281161 $





000
SAUS41 KBTV 282155
MTR1V4
METAR K1V4 282154Z AUTO M02/M11 A2987 RMK AO1 SLP129 T10171111





000
SAUS41 KBTV 282056
MTRBTV
METAR KBTV 282054Z 35016G23KT 10SM FEW050 FEW170 M02/M15 A2998 RMK
AO2 SLP156 T10221150 53000 $





000
SAUS41 KBTV 282055
MTR1V4
METAR K1V4 282054Z AUTO M01/M11 A2985 RMK AO1 SLP119 T10061106 55002





000
SAUS41 KBTV 281956
MTRBTV
METAR KBTV 281954Z 34017G23KT 10SM FEW085 BKN250 M02/M14 A2997 RMK
AO2 SLP154 T10221139 $





000
SAUS41 KBTV 281956
MTRBTV
METAR KBTV 281954Z 34017G23KT 10SM FEW085 BKN250 M02/M14 A2997 RMK
AO2 SLP154 T10221139 $





000
SAUS41 KBTV 281955
MTR1V4
METAR K1V4 281954Z AUTO 01/M10 A2984 RMK AO1 SLP114 T00061100





000
SAUS41 KBTV 281855
MTRBTV
METAR KBTV 281854Z 33014G23KT 10SM FEW085 BKN250 M02/M12 A2998 RMK
AO2 SLP157 T10221122 $





000
SAUS41 KBTV 281855
MTR1V4
METAR K1V4 281854Z AUTO 01/M09 A2983 RMK AO1 SLP113 T00061094





000
SAUS41 KBTV 281855
MTRBTV
METAR KBTV 281854Z 33014G23KT 10SM FEW085 BKN250 M02/M12 A2998 RMK
AO2 SLP157 T10221122 $





000
SAUS41 KBTV 281855
MTR1V4
METAR K1V4 281854Z AUTO 01/M09 A2983 RMK AO1 SLP113 T00061094





    US Dept of Commerce
    National Oceanic and Atmospheric Administration
    National Weather Service
    1325 East West Highway
    Silver Spring, MD 20910
    Page Author: NWS Internet Services Team
Disclaimer
Information Quality
Credits
Glossary
Privacy Policy
Freedom of Information Act (FOIA)
About Us
Career Opportunities